sensor_id;sensor_type;location;lat;lon;timestamp;P1;durP1;ratioP1;P2;durP2;ratioP2
62588;SDS011;58504;48.770;9.148;2023-02-28T00:01:03;0.73;;;0.73;;
62588;SDS011;58504;48.770;9.148;2023-02-28T00:03:30;0.77;;;0.63;;
62588;SDS011;58504;48.770;9.148;2023-02-28T00:06:00;0.98;;;0.90;;
62588;SDS011;58504;48.770;9.148;2023-02-28T00:08:27;0.60;;;0.60;;
62588;SDS011;58504;48.770;9.148;2023-02-28T00:10:53;1.33;;;0.95;;
62588;SDS011;58504;48.770;9.148;2023-02-28T00:13:22;0.85;;;0.73;;
62588;SDS011;58504;48.770;9.148;2023-02-28T00:15:57;1.23;;;0.70;;
62588;SDS011;58504;48.770;9.148;2023-02-28T00:18:26;0.90;;;0.68;;
62588;SDS011;58504;48.770;9.148;2023-02-28T00:20:53;0.80;;;0.70;;
62588;SDS011;58504;48.770;9.148;2023-02-28T00:23:19;0.57;;;0.57;;
62588;SDS011;58504;48.770;9.148;2023-02-28T00:25:46;0.70;;;0.70;;
62588;SDS011;58504;48.770;9.148;2023-02-28T00:28:14;0.88;;;0.88;;
62588;SDS011;58504;48.770;9.148;2023-02-28T00:30:42;0.80;;;0.80;;
62588;SDS011;58504;48.770;9.148;2023-02-28T00:33:09;0.50;;;0.50;;
62588;SDS011;58504;48.770;9.148;2023-02-28T00:35:36;0.73;;;0.73;;
62588;SDS011;58504;48.770;9.148;2023-02-28T00:38:03;0.82;;;0.82;;
62588;SDS011;58504;48.770;9.148;2023-02-28T00:40:30;0.98;;;0.90;;
62588;SDS011;58504;48.770;9.148;2023-02-28T00:42:57;0.70;;;0.70;;
62588;SDS011;58504;48.770;9.148;2023-02-28T00:45:24;0.95;;;0.60;;
62588;SDS011;58504;48.770;9.148;2023-02-28T00:47:52;0.43;;;0.43;;
62588;SDS011;58504;48.770;9.148;2023-02-28T00:50:19;0.73;;;0.73;;
62588;SDS011;58504;48.770;9.148;2023-02-28T00:52:46;0.80;;;0.80;;
62588;SDS011;58504;48.770;9.148;2023-02-28T00:55:13;0.65;;;0.65;;
62588;SDS011;58504;48.770;9.148;2023-02-28T00:57:40;0.73;;;0.63;;
62588;SDS011;58504;48.770;9.148;2023-02-28T01:00:09;0.77;;;0.70;;
62588;SDS011;58504;48.770;9.148;2023-02-28T01:02:37;3.03;;;0.82;;
62588;SDS011;58504;48.770;9.148;2023-02-28T01:05:05;2.50;;;0.98;;
62588;SDS011;58504;48.770;9.148;2023-02-28T01:07:32;0.95;;;0.70;;
62588;SDS011;58504;48.770;9.148;2023-02-28T01:09:59;0.68;;;0.68;;
62588;SDS011;58504;48.770;9.148;2023-02-28T01:12:26;2.45;;;0.60;;
62588;SDS011;58504;48.770;9.148;2023-02-28T01:14:52;0.65;;;0.65;;
62588;SDS011;58504;48.770;9.148;2023-02-28T01:17:19;0.80;;;0.80;;
62588;SDS011;58504;48.770;9.148;2023-02-28T01:19:46;0.70;;;0.70;;
62588;SDS011;58504;48.770;9.148;2023-02-28T01:22:14;0.55;;;0.52;;
62588;SDS011;58504;48.770;9.148;2023-02-28T01:24:41;1.20;;;1.10;;
62588;SDS011;58504;48.770;9.148;2023-02-28T01:27:07;1.35;;;0.93;;
62588;SDS011;58504;48.770;9.148;2023-02-28T01:29:34;0.60;;;0.60;;
62588;SDS011;58504;48.770;9.148;2023-02-28T01:32:01;1.17;;;0.82;;
62588;SDS011;58504;48.770;9.148;2023-02-28T01:34:28;1.02;;;0.77;;
62588;SDS011;58504;48.770;9.148;2023-02-28T01:36:55;0.70;;;0.70;;
62588;SDS011;58504;48.770;9.148;2023-02-28T01:39:25;1.20;;;1.10;;
62588;SDS011;58504;48.770;9.148;2023-02-28T01:41:52;0.70;;;0.70;;
62588;SDS011;58504;48.770;9.148;2023-02-28T01:47:23;0.90;;;0.90;;
62588;SDS011;58504;48.770;9.148;2023-02-28T01:49:53;0.85;;;0.82;;
62588;SDS011;58504;48.770;9.148;2023-02-28T01:52:20;1.15;;;1.05;;
62588;SDS011;58504;48.770;9.148;2023-02-28T01:54:52;1.85;;;0.68;;
62588;SDS011;58504;48.770;9.148;2023-02-28T01:57:22;1.42;;;0.80;;
62588;SDS011;58504;48.770;9.148;2023-02-28T02:02:24;0.57;;;0.57;;
62588;SDS011;58504;48.770;9.148;2023-02-28T02:04:53;0.80;;;0.80;;
62588;SDS011;58504;48.770;9.148;2023-02-28T02:07:22;0.95;;;0.95;;
62588;SDS011;58504;48.770;9.148;2023-02-28T02:09:58;3.00;;;0.95;;
62588;SDS011;58504;48.770;9.148;2023-02-28T02:12:29;1.10;;;0.88;;
62588;SDS011;58504;48.770;9.148;2023-02-28T02:15:07;0.65;;;0.65;;
62588;SDS011;58504;48.770;9.148;2023-02-28T02:17:38;0.68;;;0.68;;
62588;SDS011;58504;48.770;9.148;2023-02-28T02:23:27;0.82;;;0.70;;
62588;SDS011;58504;48.770;9.148;2023-02-28T02:26:18;0.60;;;0.60;;
62588;SDS011;58504;48.770;9.148;2023-02-28T02:29:10;0.70;;;0.70;;
62588;SDS011;58504;48.770;9.148;2023-02-28T02:32:09;0.90;;;0.90;;
62588;SDS011;58504;48.770;9.148;2023-02-28T02:35:02;1.17;;;0.82;;
62588;SDS011;58504;48.770;9.148;2023-02-28T02:37:39;0.68;;;0.60;;
62588;SDS011;58504;48.770;9.148;2023-02-28T02:40:14;0.88;;;0.88;;
62588;SDS011;58504;48.770;9.148;2023-02-28T02:42:46;0.90;;;0.90;;
62588;SDS011;58504;48.770;9.148;2023-02-28T02:45:18;0.65;;;0.65;;
62588;SDS011;58504;48.770;9.148;2023-02-28T02:47:49;1.17;;;1.02;;
62588;SDS011;58504;48.770;9.148;2023-02-28T02:50:19;0.68;;;0.68;;
62588;SDS011;58504;48.770;9.148;2023-02-28T02:52:51;0.77;;;0.77;;
62588;SDS011;58504;48.770;9.148;2023-02-28T02:55:21;0.90;;;0.90;;
62588;SDS011;58504;48.770;9.148;2023-02-28T02:57:49;0.45;;;0.45;;
62588;SDS011;58504;48.770;9.148;2023-02-28T03:00:23;1.00;;;0.73;;
62588;SDS011;58504;48.770;9.148;2023-02-28T03:02:53;0.75;;;0.75;;
62588;SDS011;58504;48.770;9.148;2023-02-28T03:05:24;0.88;;;0.68;;
62588;SDS011;58504;48.770;9.148;2023-02-28T03:10:28;0.85;;;0.85;;
62588;SDS011;58504;48.770;9.148;2023-02-28T03:13:02;0.70;;;0.70;;
62588;SDS011;58504;48.770;9.148;2023-02-28T03:15:39;1.02;;;1.00;;
62588;SDS011;58504;48.770;9.148;2023-02-28T03:18:16;1.17;;;1.10;;
62588;SDS011;58504;48.770;9.148;2023-02-28T03:20:53;0.82;;;0.80;;
62588;SDS011;58504;48.770;9.148;2023-02-28T03:23:29;1.00;;;1.00;;
62588;SDS011;58504;48.770;9.148;2023-02-28T03:26:01;1.20;;;1.10;;
62588;SDS011;58504;48.770;9.148;2023-02-28T03:28:34;0.98;;;0.98;;
62588;SDS011;58504;48.770;9.148;2023-02-28T03:31:07;0.60;;;0.60;;
62588;SDS011;58504;48.770;9.148;2023-02-28T03:33:42;1.00;;;1.00;;
62588;SDS011;58504;48.770;9.148;2023-02-28T03:36:21;0.68;;;0.60;;
62588;SDS011;58504;48.770;9.148;2023-02-28T03:38:53;1.00;;;1.00;;
62588;SDS011;58504;48.770;9.148;2023-02-28T03:41:27;0.60;;;0.60;;
62588;SDS011;58504;48.770;9.148;2023-02-28T03:43:59;0.80;;;0.80;;
62588;SDS011;58504;48.770;9.148;2023-02-28T03:46:30;0.60;;;0.60;;
62588;SDS011;58504;48.770;9.148;2023-02-28T03:49:01;1.20;;;1.10;;
62588;SDS011;58504;48.770;9.148;2023-02-28T03:51:33;0.77;;;0.77;;
62588;SDS011;58504;48.770;9.148;2023-02-28T03:54:02;0.70;;;0.68;;
62588;SDS011;58504;48.770;9.148;2023-02-28T03:59:04;0.80;;;0.70;;
62588;SDS011;58504;48.770;9.148;2023-02-28T04:01:36;0.70;;;0.70;;
62588;SDS011;58504;48.770;9.148;2023-02-28T04:04:06;1.42;;;1.05;;
62588;SDS011;58504;48.770;9.148;2023-02-28T04:06:34;0.60;;;0.60;;
62588;SDS011;58504;48.770;9.148;2023-02-28T04:09:01;1.88;;;0.93;;
62588;SDS011;58504;48.770;9.148;2023-02-28T04:11:30;1.23;;;0.90;;
62588;SDS011;58504;48.770;9.148;2023-02-28T04:13:59;1.83;;;0.80;;
62588;SDS011;58504;48.770;9.148;2023-02-28T04:16:27;0.70;;;0.70;;
62588;SDS011;58504;48.770;9.148;2023-02-28T04:18:53;0.95;;;0.95;;
62588;SDS011;58504;48.770;9.148;2023-02-28T04:21:26;0.75;;;0.75;;
62588;SDS011;58504;48.770;9.148;2023-02-28T04:23:55;0.80;;;0.80;;
62588;SDS011;58504;48.770;9.148;2023-02-28T04:26:25;0.50;;;0.50;;
62588;SDS011;58504;48.770;9.148;2023-02-28T04:28:54;1.00;;;1.00;;
62588;SDS011;58504;48.770;9.148;2023-02-28T04:31:21;0.88;;;0.88;;
62588;SDS011;58504;48.770;9.148;2023-02-28T04:33:48;0.70;;;0.70;;
62588;SDS011;58504;48.770;9.148;2023-02-28T04:36:15;0.85;;;0.82;;
62588;SDS011;58504;48.770;9.148;2023-02-28T04:38:42;0.85;;;0.85;;
62588;SDS011;58504;48.770;9.148;2023-02-28T04:41:11;0.75;;;0.75;;
62588;SDS011;58504;48.770;9.148;2023-02-28T04:43:38;1.05;;;0.95;;
62588;SDS011;58504;48.770;9.148;2023-02-28T04:46:05;1.00;;;0.90;;
62588;SDS011;58504;48.770;9.148;2023-02-28T04:48:33;0.70;;;0.70;;
62588;SDS011;58504;48.770;9.148;2023-02-28T04:51:02;1.17;;;1.08;;
62588;SDS011;58504;48.770;9.148;2023-02-28T04:53:29;0.70;;;0.70;;
62588;SDS011;58504;48.770;9.148;2023-02-28T04:55:57;0.98;;;0.98;;
62588;SDS011;58504;48.770;9.148;2023-02-28T04:58:25;0.63;;;0.63;;
62588;SDS011;58504;48.770;9.148;2023-02-28T05:00:53;0.95;;;0.80;;
62588;SDS011;58504;48.770;9.148;2023-02-28T05:03:20;0.88;;;0.88;;
62588;SDS011;58504;48.770;9.148;2023-02-28T05:05:47;0.70;;;0.70;;
62588;SDS011;58504;48.770;9.148;2023-02-28T05:08:14;1.08;;;0.98;;
62588;SDS011;58504;48.770;9.148;2023-02-28T05:10:41;1.00;;;0.90;;
62588;SDS011;58504;48.770;9.148;2023-02-28T05:13:09;0.70;;;0.70;;
62588;SDS011;58504;48.770;9.148;2023-02-28T05:15:38;1.10;;;1.10;;
62588;SDS011;58504;48.770;9.148;2023-02-28T05:18:05;0.90;;;0.90;;
62588;SDS011;58504;48.770;9.148;2023-02-28T05:20:34;0.60;;;0.60;;
62588;SDS011;58504;48.770;9.148;2023-02-28T05:23:01;0.70;;;0.70;;
62588;SDS011;58504;48.770;9.148;2023-02-28T05:25:28;0.90;;;0.90;;
62588;SDS011;58504;48.770;9.148;2023-02-28T05:27:55;0.90;;;0.80;;
62588;SDS011;58504;48.770;9.148;2023-02-28T05:30:21;0.80;;;0.80;;
62588;SDS011;58504;48.770;9.148;2023-02-28T05:32:50;0.68;;;0.68;;
62588;SDS011;58504;48.770;9.148;2023-02-28T05:35:17;1.23;;;1.13;;
62588;SDS011;58504;48.770;9.148;2023-02-28T05:37:44;0.73;;;0.73;;
62588;SDS011;58504;48.770;9.148;2023-02-28T05:40:11;0.82;;;0.80;;
62588;SDS011;58504;48.770;9.148;2023-02-28T05:42:38;0.88;;;0.88;;
62588;SDS011;58504;48.770;9.148;2023-02-28T05:45:05;0.55;;;0.55;;
62588;SDS011;58504;48.770;9.148;2023-02-28T05:47:33;0.73;;;0.73;;
62588;SDS011;58504;48.770;9.148;2023-02-28T05:50:02;0.90;;;0.77;;
62588;SDS011;58504;48.770;9.148;2023-02-28T05:52:29;0.98;;;0.73;;
62588;SDS011;58504;48.770;9.148;2023-02-28T05:54:56;0.60;;;0.60;;
62588;SDS011;58504;48.770;9.148;2023-02-28T05:57:22;0.95;;;0.95;;
62588;SDS011;58504;48.770;9.148;2023-02-28T05:59:49;0.65;;;0.65;;
62588;SDS011;58504;48.770;9.148;2023-02-28T06:02:16;1.23;;;1.13;;
62588;SDS011;58504;48.770;9.148;2023-02-28T06:04:44;1.35;;;1.17;;
62588;SDS011;58504;48.770;9.148;2023-02-28T06:07:12;1.33;;;1.23;;
62588;SDS011;58504;48.770;9.148;2023-02-28T06:09:40;0.80;;;0.80;;
62588;SDS011;58504;48.770;9.148;2023-02-28T06:12:06;1.00;;;1.00;;
62588;SDS011;58504;48.770;9.148;2023-02-28T06:14:34;0.60;;;0.60;;
62588;SDS011;58504;48.770;9.148;2023-02-28T06:17:02;1.08;;;0.98;;
62588;SDS011;58504;48.770;9.148;2023-02-28T06:19:29;1.17;;;1.08;;
62588;SDS011;58504;48.770;9.148;2023-02-28T06:21:56;1.17;;;1.00;;
62588;SDS011;58504;48.770;9.148;2023-02-28T06:24:26;1.00;;;0.98;;
62588;SDS011;58504;48.770;9.148;2023-02-28T06:26:54;0.68;;;0.68;;
62588;SDS011;58504;48.770;9.148;2023-02-28T06:29:21;1.00;;;0.55;;
62588;SDS011;58504;48.770;9.148;2023-02-28T06:31:47;0.63;;;0.63;;
62588;SDS011;58504;48.770;9.148;2023-02-28T06:34:16;0.93;;;0.82;;
62588;SDS011;58504;48.770;9.148;2023-02-28T06:36:42;0.80;;;0.80;;
62588;SDS011;58504;48.770;9.148;2023-02-28T06:39:09;9.73;;;1.05;;
62588;SDS011;58504;48.770;9.148;2023-02-28T06:41:38;1.58;;;1.00;;
62588;SDS011;58504;48.770;9.148;2023-02-28T06:44:05;2.90;;;1.27;;
62588;SDS011;58504;48.770;9.148;2023-02-28T06:46:38;0.80;;;0.80;;
62588;SDS011;58504;48.770;9.148;2023-02-28T06:49:05;0.65;;;0.65;;
62588;SDS011;58504;48.770;9.148;2023-02-28T06:51:34;0.80;;;0.80;;
62588;SDS011;58504;48.770;9.148;2023-02-28T06:54:01;0.68;;;0.68;;
62588;SDS011;58504;48.770;9.148;2023-02-28T06:56:28;2.85;;;1.30;;
62588;SDS011;58504;48.770;9.148;2023-02-28T06:58:56;1.23;;;0.75;;
62588;SDS011;58504;48.770;9.148;2023-02-28T07:01:23;0.70;;;0.70;;
62588;SDS011;58504;48.770;9.148;2023-02-28T07:03:50;4.88;;;0.88;;
62588;SDS011;58504;48.770;9.148;2023-02-28T07:06:17;1.95;;;0.90;;
62588;SDS011;58504;48.770;9.148;2023-02-28T07:08:44;0.60;;;0.60;;
62588;SDS011;58504;48.770;9.148;2023-02-28T07:11:11;1.38;;;1.23;;
62588;SDS011;58504;48.770;9.148;2023-02-28T07:13:38;0.85;;;0.80;;
62588;SDS011;58504;48.770;9.148;2023-02-28T07:16:06;1.75;;;0.85;;
62588;SDS011;58504;48.770;9.148;2023-02-28T07:18:36;1.67;;;1.23;;
62588;SDS011;58504;48.770;9.148;2023-02-28T07:21:03;0.70;;;0.70;;
62588;SDS011;58504;48.770;9.148;2023-02-28T07:23:31;0.82;;;0.82;;
62588;SDS011;58504;48.770;9.148;2023-02-28T07:25:58;1.60;;;1.02;;
62588;SDS011;58504;48.770;9.148;2023-02-28T07:28:25;1.55;;;0.88;;
62588;SDS011;58504;48.770;9.148;2023-02-28T07:30:52;2.20;;;1.08;;
62588;SDS011;58504;48.770;9.148;2023-02-28T07:33:20;1.75;;;0.77;;
62588;SDS011;58504;48.770;9.148;2023-02-28T07:35:48;0.88;;;0.88;;
62588;SDS011;58504;48.770;9.148;2023-02-28T07:38:15;1.42;;;1.10;;
62588;SDS011;58504;48.770;9.148;2023-02-28T07:40:42;1.02;;;1.00;;
62588;SDS011;58504;48.770;9.148;2023-02-28T07:43:09;0.98;;;0.90;;
62588;SDS011;58504;48.770;9.148;2023-02-28T07:45:35;1.90;;;0.80;;
62588;SDS011;58504;48.770;9.148;2023-02-28T07:48:02;1.30;;;1.20;;
62588;SDS011;58504;48.770;9.148;2023-02-28T07:50:30;1.33;;;1.20;;
62588;SDS011;58504;48.770;9.148;2023-02-28T07:52:57;0.98;;;0.98;;
62588;SDS011;58504;48.770;9.148;2023-02-28T07:55:24;1.00;;;0.93;;
62588;SDS011;58504;48.770;9.148;2023-02-28T07:57:51;0.70;;;0.70;;
62588;SDS011;58504;48.770;9.148;2023-02-28T08:00:18;1.35;;;1.25;;
62588;SDS011;58504;48.770;9.148;2023-02-28T08:02:45;0.90;;;0.90;;
62588;SDS011;58504;48.770;9.148;2023-02-28T08:05:12;0.88;;;0.88;;
62588;SDS011;58504;48.770;9.148;2023-02-28T08:07:40;1.00;;;0.90;;
62588;SDS011;58504;48.770;9.148;2023-02-28T08:10:07;0.70;;;0.70;;
62588;SDS011;58504;48.770;9.148;2023-02-28T08:12:35;1.23;;;0.98;;
62588;SDS011;58504;48.770;9.148;2023-02-28T08:15:02;1.10;;;0.98;;
62588;SDS011;58504;48.770;9.148;2023-02-28T08:17:29;4.63;;;1.20;;
62588;SDS011;58504;48.770;9.148;2023-02-28T08:19:55;7.20;;;1.35;;
62588;SDS011;58504;48.770;9.148;2023-02-28T08:22:22;2.08;;;1.35;;
62588;SDS011;58504;48.770;9.148;2023-02-28T08:24:50;2.45;;;1.30;;
62588;SDS011;58504;48.770;9.148;2023-02-28T08:27:17;6.90;;;1.00;;
62588;SDS011;58504;48.770;9.148;2023-02-28T08:29:44;1.95;;;0.90;;
62588;SDS011;58504;48.770;9.148;2023-02-28T08:32:10;2.78;;;1.00;;
62588;SDS011;58504;48.770;9.148;2023-02-28T08:34:38;1.17;;;1.02;;
62588;SDS011;58504;48.770;9.148;2023-02-28T08:37:05;0.70;;;0.70;;
62588;SDS011;58504;48.770;9.148;2023-02-28T08:39:33;2.35;;;1.50;;
62588;SDS011;58504;48.770;9.148;2023-02-28T08:42:02;1.27;;;1.17;;
62588;SDS011;58504;48.770;9.148;2023-02-28T08:44:29;1.45;;;1.35;;
62588;SDS011;58504;48.770;9.148;2023-02-28T08:46:56;2.30;;;1.00;;
62588;SDS011;58504;48.770;9.148;2023-02-28T08:49:23;1.20;;;1.15;;
62588;SDS011;58504;48.770;9.148;2023-02-28T08:51:49;1.30;;;1.13;;
62588;SDS011;58504;48.770;9.148;2023-02-28T08:54:16;1.15;;;1.05;;
62588;SDS011;58504;48.770;9.148;2023-02-28T08:56:44;0.95;;;0.95;;
62588;SDS011;58504;48.770;9.148;2023-02-28T08:59:13;1.25;;;1.10;;
62588;SDS011;58504;48.770;9.148;2023-02-28T09:01:40;1.33;;;1.15;;
62588;SDS011;58504;48.770;9.148;2023-02-28T09:04:08;0.80;;;0.80;;
62588;SDS011;58504;48.770;9.148;2023-02-28T09:06:36;2.97;;;1.00;;
62588;SDS011;58504;48.770;9.148;2023-02-28T09:09:03;2.75;;;1.27;;
62588;SDS011;58504;48.770;9.148;2023-02-28T09:11:32;1.90;;;1.15;;
62588;SDS011;58504;48.770;9.148;2023-02-28T09:14:00;5.00;;;1.00;;
62588;SDS011;58504;48.770;9.148;2023-02-28T09:16:30;1.20;;;1.10;;
62588;SDS011;58504;48.770;9.148;2023-02-28T09:18:57;3.10;;;1.40;;
62588;SDS011;58504;48.770;9.148;2023-02-28T09:21:24;1.30;;;1.20;;
62588;SDS011;58504;48.770;9.148;2023-02-28T09:23:51;1.27;;;1.02;;
62588;SDS011;58504;48.770;9.148;2023-02-28T09:26:18;1.33;;;1.10;;
62588;SDS011;58504;48.770;9.148;2023-02-28T09:28:47;1.75;;;1.08;;
62588;SDS011;58504;48.770;9.148;2023-02-28T09:31:15;4.55;;;1.17;;
62588;SDS011;58504;48.770;9.148;2023-02-28T09:33:47;1.40;;;1.27;;
62588;SDS011;58504;48.770;9.148;2023-02-28T09:36:15;6.97;;;1.50;;
62588;SDS011;58504;48.770;9.148;2023-02-28T09:38:42;2.72;;;1.40;;
62588;SDS011;58504;48.770;9.148;2023-02-28T09:41:12;1.23;;;1.10;;
62588;SDS011;58504;48.770;9.148;2023-02-28T09:43:43;0.90;;;0.90;;
62588;SDS011;58504;48.770;9.148;2023-02-28T09:46:14;8.55;;;1.23;;
62588;SDS011;58504;48.770;9.148;2023-02-28T09:48:52;1.30;;;1.20;;
62588;SDS011;58504;48.770;9.148;2023-02-28T09:51:30;1.52;;;1.20;;
62588;SDS011;58504;48.770;9.148;2023-02-28T09:54:02;1.80;;;1.23;;
62588;SDS011;58504;48.770;9.148;2023-02-28T09:56:30;1.85;;;1.35;;
62588;SDS011;58504;48.770;9.148;2023-02-28T09:59:02;1.40;;;1.23;;
62588;SDS011;58504;48.770;9.148;2023-02-28T10:01:39;1.00;;;1.00;;
62588;SDS011;58504;48.770;9.148;2023-02-28T10:04:12;1.70;;;1.30;;
62588;SDS011;58504;48.770;9.148;2023-02-28T10:06:44;1.30;;;1.20;;
62588;SDS011;58504;48.770;9.148;2023-02-28T10:09:14;1.25;;;1.15;;
62588;SDS011;58504;48.770;9.148;2023-02-28T10:11:47;1.17;;;1.05;;
62588;SDS011;58504;48.770;9.148;2023-02-28T10:14:17;1.20;;;1.10;;
62588;SDS011;58504;48.770;9.148;2023-02-28T10:16:45;1.00;;;1.00;;
62588;SDS011;58504;48.770;9.148;2023-02-28T10:19:19;2.15;;;1.08;;
62588;SDS011;58504;48.770;9.148;2023-02-28T10:21:52;1.95;;;1.45;;
62588;SDS011;58504;48.770;9.148;2023-02-28T10:24:23;1.15;;;1.10;;
62588;SDS011;58504;48.770;9.148;2023-02-28T10:26:56;2.00;;;1.15;;
62588;SDS011;58504;48.770;9.148;2023-02-28T10:29:26;1.33;;;1.23;;
62588;SDS011;58504;48.770;9.148;2023-02-28T10:31:54;2.45;;;1.38;;
62588;SDS011;58504;48.770;9.148;2023-02-28T10:34:23;2.80;;;1.25;;
62588;SDS011;58504;48.770;9.148;2023-02-28T10:36:51;1.25;;;1.02;;
62588;SDS011;58504;48.770;9.148;2023-02-28T10:39:34;3.72;;;1.48;;
62588;SDS011;58504;48.770;9.148;2023-02-28T10:42:05;1.38;;;1.15;;
62588;SDS011;58504;48.770;9.148;2023-02-28T10:44:53;1.52;;;1.42;;
62588;SDS011;58504;48.770;9.148;2023-02-28T10:47:32;1.40;;;1.30;;
62588;SDS011;58504;48.770;9.148;2023-02-28T10:50:01;9.93;;;1.65;;
62588;SDS011;58504;48.770;9.148;2023-02-28T10:52:36;3.90;;;1.67;;
62588;SDS011;58504;48.770;9.148;2023-02-28T10:55:15;7.35;;;1.35;;
62588;SDS011;58504;48.770;9.148;2023-02-28T10:57:47;1.50;;;1.40;;
62588;SDS011;58504;48.770;9.148;2023-02-28T11:00:15;5.32;;;1.65;;
62588;SDS011;58504;48.770;9.148;2023-02-28T11:02:44;1.65;;;1.23;;
62588;SDS011;58504;48.770;9.148;2023-02-28T11:05:23;3.13;;;1.42;;
62588;SDS011;58504;48.770;9.148;2023-02-28T11:07:55;1.10;;;1.00;;
62588;SDS011;58504;48.770;9.148;2023-02-28T11:10:25;2.92;;;1.50;;
62588;SDS011;58504;48.770;9.148;2023-02-28T11:12:57;1.55;;;1.10;;
62588;SDS011;58504;48.770;9.148;2023-02-28T11:15:25;2.35;;;1.30;;
62588;SDS011;58504;48.770;9.148;2023-02-28T11:17:54;3.20;;;1.55;;
62588;SDS011;58504;48.770;9.148;2023-02-28T11:20:25;6.80;;;1.60;;
62588;SDS011;58504;48.770;9.148;2023-02-28T11:22:54;1.40;;;1.30;;
62588;SDS011;58504;48.770;9.148;2023-02-28T11:25:23;3.58;;;1.83;;
62588;SDS011;58504;48.770;9.148;2023-02-28T11:27:53;2.08;;;1.35;;
62588;SDS011;58504;48.770;9.148;2023-02-28T11:30:28;3.65;;;1.42;;
62588;SDS011;58504;48.770;9.148;2023-02-28T11:32:58;2.88;;;1.40;;
62588;SDS011;58504;48.770;9.148;2023-02-28T11:35:28;1.23;;;1.13;;
62588;SDS011;58504;48.770;9.148;2023-02-28T11:37:59;1.30;;;1.20;;
62588;SDS011;58504;48.770;9.148;2023-02-28T11:40:29;1.85;;;1.38;;
62588;SDS011;58504;48.770;9.148;2023-02-28T11:43:06;5.35;;;2.20;;
62588;SDS011;58504;48.770;9.148;2023-02-28T11:45:45;1.55;;;1.45;;
62588;SDS011;58504;48.770;9.148;2023-02-28T11:48:20;3.35;;;1.50;;
62588;SDS011;58504;48.770;9.148;2023-02-28T11:50:58;1.60;;;1.50;;
62588;SDS011;58504;48.770;9.148;2023-02-28T11:53:35;2.17;;;1.90;;
62588;SDS011;58504;48.770;9.148;2023-02-28T11:56:16;3.15;;;1.90;;
62588;SDS011;58504;48.770;9.148;2023-02-28T11:58:52;2.00;;;1.70;;
62588;SDS011;58504;48.770;9.148;2023-02-28T12:01:29;1.80;;;1.70;;
62588;SDS011;58504;48.770;9.148;2023-02-28T12:04:10;1.73;;;1.55;;
62588;SDS011;58504;48.770;9.148;2023-02-28T12:06:45;1.73;;;1.63;;
62588;SDS011;58504;48.770;9.148;2023-02-28T12:09:20;1.67;;;1.58;;
62588;SDS011;58504;48.770;9.148;2023-02-28T12:12:05;1.95;;;1.85;;
62588;SDS011;58504;48.770;9.148;2023-02-28T12:14:47;2.67;;;1.33;;
62588;SDS011;58504;48.770;9.148;2023-02-28T12:17:27;1.80;;;1.70;;
62588;SDS011;58504;48.770;9.148;2023-02-28T12:20:05;1.17;;;1.00;;
62588;SDS011;58504;48.770;9.148;2023-02-28T12:22:46;4.65;;;1.35;;
62588;SDS011;58504;48.770;9.148;2023-02-28T12:25:23;2.00;;;1.77;;
62588;SDS011;58504;48.770;9.148;2023-02-28T12:28:12;1.70;;;1.60;;
62588;SDS011;58504;48.770;9.148;2023-02-28T12:30:44;2.00;;;1.65;;
62588;SDS011;58504;48.770;9.148;2023-02-28T12:33:18;2.78;;;1.33;;
62588;SDS011;58504;48.770;9.148;2023-02-28T12:35:49;1.90;;;1.70;;
62588;SDS011;58504;48.770;9.148;2023-02-28T12:38:22;1.50;;;1.40;;
62588;SDS011;58504;48.770;9.148;2023-02-28T12:40:53;2.17;;;1.63;;
62588;SDS011;58504;48.770;9.148;2023-02-28T12:43:25;1.55;;;1.35;;
62588;SDS011;58504;48.770;9.148;2023-02-28T12:45:57;1.73;;;1.63;;
62588;SDS011;58504;48.770;9.148;2023-02-28T12:48:29;1.83;;;1.65;;
62588;SDS011;58504;48.770;9.148;2023-02-28T12:51:07;3.55;;;1.60;;
62588;SDS011;58504;48.770;9.148;2023-02-28T12:53:38;1.40;;;1.30;;
62588;SDS011;58504;48.770;9.148;2023-02-28T12:56:16;2.80;;;1.65;;
62588;SDS011;58504;48.770;9.148;2023-02-28T12:58:48;1.90;;;1.80;;
62588;SDS011;58504;48.770;9.148;2023-02-28T13:01:23;1.60;;;1.50;;
62588;SDS011;58504;48.770;9.148;2023-02-28T13:04:11;3.03;;;1.52;;
62588;SDS011;58504;48.770;9.148;2023-02-28T13:07:10;1.92;;;1.80;;
62588;SDS011;58504;48.770;9.148;2023-02-28T13:10:02;2.17;;;1.80;;
62588;SDS011;58504;48.770;9.148;2023-02-28T13:12:31;2.95;;;1.50;;
62588;SDS011;58504;48.770;9.148;2023-02-28T13:15:04;3.55;;;1.75;;
62588;SDS011;58504;48.770;9.148;2023-02-28T13:17:37;1.70;;;1.60;;
62588;SDS011;58504;48.770;9.148;2023-02-28T13:20:14;1.33;;;1.23;;
62588;SDS011;58504;48.770;9.148;2023-02-28T13:22:43;2.42;;;1.65;;
62588;SDS011;58504;48.770;9.148;2023-02-28T13:31:32;2.28;;;1.60;;
62588;SDS011;58504;48.770;9.148;2023-02-28T13:34:28;2.00;;;1.80;;
62588;SDS011;58504;48.770;9.148;2023-02-28T13:37:03;1.63;;;1.52;;
62588;SDS011;58504;48.770;9.148;2023-02-28T13:40:22;9.63;;;2.30;;
62588;SDS011;58504;48.770;9.148;2023-02-28T13:42:54;11.80;;;1.95;;
62588;SDS011;58504;48.770;9.148;2023-02-28T13:45:24;5.50;;;1.73;;
62588;SDS011;58504;48.770;9.148;2023-02-28T13:47:53;2.22;;;1.70;;
62588;SDS011;58504;48.770;9.148;2023-02-28T13:50:34;8.02;;;1.63;;
62588;SDS011;58504;48.770;9.148;2023-02-28T13:53:13;7.10;;;1.58;;
62588;SDS011;58504;48.770;9.148;2023-02-28T13:56:19;1.90;;;1.80;;
62588;SDS011;58504;48.770;9.148;2023-02-28T13:58:55;3.17;;;1.88;;
62588;SDS011;58504;48.770;9.148;2023-02-28T14:01:35;1.50;;;1.40;;
62588;SDS011;58504;48.770;9.148;2023-02-28T14:07:16;3.90;;;2.38;;
62588;SDS011;58504;48.770;9.148;2023-02-28T14:09:49;6.18;;;3.92;;
62588;SDS011;58504;48.770;9.148;2023-02-28T14:15:30;3.45;;;3.15;;
62588;SDS011;58504;48.770;9.148;2023-02-28T14:18:13;3.08;;;2.78;;
62588;SDS011;58504;48.770;9.148;2023-02-28T14:20:49;2.88;;;2.67;;
62588;SDS011;58504;48.770;9.148;2023-02-28T14:23:26;3.72;;;3.38;;
62588;SDS011;58504;48.770;9.148;2023-02-28T14:26:19;4.30;;;2.90;;
62588;SDS011;58504;48.770;9.148;2023-02-28T14:29:00;4.65;;;2.08;;
62588;SDS011;58504;48.770;9.148;2023-02-28T14:31:45;2.22;;;2.13;;
62588;SDS011;58504;48.770;9.148;2023-02-28T14:34:27;3.75;;;2.20;;
62588;SDS011;58504;48.770;9.148;2023-02-28T14:37:03;2.03;;;1.92;;
62588;SDS011;58504;48.770;9.148;2023-02-28T14:39:34;2.28;;;2.08;;
62588;SDS011;58504;48.770;9.148;2023-02-28T14:42:02;3.10;;;2.08;;
62588;SDS011;58504;48.770;9.148;2023-02-28T14:44:30;1.85;;;1.75;;
62588;SDS011;58504;48.770;9.148;2023-02-28T14:46:57;2.08;;;1.98;;
62588;SDS011;58504;48.770;9.148;2023-02-28T14:49:29;1.90;;;1.80;;
62588;SDS011;58504;48.770;9.148;2023-02-28T14:52:02;1.95;;;1.75;;
62588;SDS011;58504;48.770;9.148;2023-02-28T14:54:36;1.83;;;1.73;;
62588;SDS011;58504;48.770;9.148;2023-02-28T14:57:03;1.98;;;1.88;;
62588;SDS011;58504;48.770;9.148;2023-02-28T14:59:31;1.70;;;1.50;;
62588;SDS011;58504;48.770;9.148;2023-02-28T15:02:16;1.88;;;1.77;;
62588;SDS011;58504;48.770;9.148;2023-02-28T15:04:52;4.25;;;2.13;;
62588;SDS011;58504;48.770;9.148;2023-02-28T15:07:20;4.15;;;1.60;;
62588;SDS011;58504;48.770;9.148;2023-02-28T15:10:07;2.33;;;2.13;;
62588;SDS011;58504;48.770;9.148;2023-02-28T15:12:35;2.10;;;1.90;;
62588;SDS011;58504;48.770;9.148;2023-02-28T15:15:03;2.25;;;2.08;;
62588;SDS011;58504;48.770;9.148;2023-02-28T15:17:32;4.63;;;2.20;;
62588;SDS011;58504;48.770;9.148;2023-02-28T15:20:00;1.92;;;1.75;;
62588;SDS011;58504;48.770;9.148;2023-02-28T15:22:28;1.70;;;1.60;;
62588;SDS011;58504;48.770;9.148;2023-02-28T15:25:01;1.90;;;1.52;;
62588;SDS011;58504;48.770;9.148;2023-02-28T15:27:32;7.28;;;1.67;;
62588;SDS011;58504;48.770;9.148;2023-02-28T15:30:04;1.63;;;1.53;;
62588;SDS011;58504;48.770;9.148;2023-02-28T15:35:17;3.00;;;1.40;;
62588;SDS011;58504;48.770;9.148;2023-02-28T15:37:46;1.55;;;1.45;;
62588;SDS011;58504;48.770;9.148;2023-02-28T15:40:15;1.40;;;1.30;;